Time;durP1;ratioP1;P1;durP2;ratioP2;P2;SDS_P1;SDS_P2;PMS_P1;PMS_P2;Temp;Humidity;BMP_temperature;BMP_pressure;BME280_temperature;BME280_humidity;BME280_pressure;Samples;Min_cycle;Max_cycle;Signal;HPM_P1;HPM_P2
2021/07/27 00:00:50;;;;;;;8.60;3.45;;;18.90;99.90;;;;;;12525066;28;20534;-35
2021/07/27 00:06:52;;;;;;;6.03;3.60;;;18.80;99.90;;;;;;12533227;28;20062;-36
2021/07/27 00:12:54;;;;;;;6.93;3.67;;;18.90;99.90;;;;;;12523431;28;20103;-36
2021/07/27 00:18:56;;;;;;;7.47;4.13;;;18.90;99.90;;;;;;12523719;28;20055;-35
2021/07/27 00:24:58;;;;;;;7.75;4.00;;;18.70;99.90;;;;;;12522492;28;20470;-35
2021/07/27 00:31:00;;;;;;;6.63;4.35;;;18.70;99.90;;;;;;12521519;28;20527;-45
2021/07/27 00:37:03;;;;;;;10.40;4.20;;;18.60;99.90;;;;;;12523491;28;20128;-45
2021/07/27 00:43:06;;;;;;;9.43;4.90;;;18.50;99.90;;;;;;12528264;28;20971;-45
2021/07/27 00:49:08;;;;;;;11.07;5.18;;;18.50;99.90;;;;;;12522024;28;20057;-45
2021/07/27 00:55:10;;;;;;;9.27;4.65;;;18.30;99.90;;;;;;12519852;28;20133;-45
2021/07/27 01:01:12;;;;;;;8.77;5.20;;;18.30;99.90;;;;;;12523050;28;20044;-45
2021/07/27 01:07:14;;;;;;;7.40;4.93;;;18.20;99.90;;;;;;12516429;28;20135;-45
2021/07/27 01:13:16;;;;;;;15.38;5.35;;;18.10;99.90;;;;;;12519041;28;20527;-45
2021/07/27 01:19:34;;;;;;;8.20;4.90;;;18.10;99.90;;;;;;12521122;28;20135;-45
2021/07/27 01:44:25;;;;;;;7.28;4.47;;;18.00;99.90;;;;;;12521457;28;20561;-45
2021/07/27 01:50:27;;;;;;;7.20;4.80;;;18.00;99.90;;;;;;12520892;28;20083;-45
2021/07/27 01:56:32;;;;;;;7.00;5.00;;;17.90;99.90;;;;;;12522022;28;20059;-45
2021/07/27 02:02:34;;;;;;;8.63;5.20;;;17.90;99.90;;;;;;12524195;28;20555;-45
2021/07/27 02:08:36;;;;;;;6.97;4.90;;;17.90;99.90;;;;;;12533637;28;20057;-45
2021/07/27 02:20:58;;;;;;;9.82;6.32;;;17.90;99.90;;;;;;12533171;28;20045;-45
2021/07/27 02:27:00;;;;;;;10.32;6.20;;;17.90;99.90;;;;;;12530058;28;20101;-45
2021/07/27 02:33:02;;;;;;;10.38;7.10;;;17.90;99.90;;;;;;12529413;28;20114;-45
2021/07/27 02:39:06;;;;;;;11.75;6.90;;;17.80;99.90;;;;;;12517832;28;20106;-45
2021/07/27 02:45:10;;;;;;;11.70;7.60;;;17.90;99.90;;;;;;12532399;28;20049;-45
2021/07/27 02:51:12;;;;;;;13.65;8.40;;;17.90;99.90;;;;;;12530310;28;20454;-45
2021/07/27 02:57:16;;;;;;;13.77;9.25;;;17.80;99.90;;;;;;12529259;28;20556;-45
2021/07/27 03:03:17;;;;;;;13.07;10.23;;;17.70;99.90;;;;;;12531235;28;20037;-45
2021/07/27 03:09:30;;;;;;;14.68;9.63;;;17.80;99.90;;;;;;12530717;28;20060;-45
2021/07/27 03:15:32;;;;;;;16.13;9.43;;;17.80;99.90;;;;;;12531971;28;20094;-45
2021/07/27 03:21:34;;;;;;;15.20;9.77;;;17.80;99.90;;;;;;12526362;28;20118;-45
2021/07/27 03:27:39;;;;;;;14.18;9.75;;;17.80;99.90;;;;;;12528635;28;20061;-45
2021/07/27 03:33:41;;;;;;;14.88;9.80;;;17.90;99.90;;;;;;12532861;28;20790;-45
2021/07/27 03:39:47;;;;;;;14.13;10.43;;;17.80;99.90;;;;;;12533472;28;20049;-45
2021/07/27 03:45:48;;;;;;;15.02;10.70;;;18.00;99.90;;;;;;12528607;28;20049;-45
2021/07/27 03:51:50;;;;;;;16.38;11.23;;;17.90;99.90;;;;;;12524679;28;20078;-45
2021/07/27 03:57:55;;;;;;;16.25;11.68;;;17.90;99.90;;;;;;12536385;28;20102;-45
2021/07/27 04:03:57;;;;;;;17.60;12.68;;;17.70;99.90;;;;;;12523593;28;20122;-45
2021/07/27 04:10:00;;;;;;;20.88;13.38;;;17.70;99.90;;;;;;12528538;28;20059;-45
2021/07/27 04:16:02;;;;;;;22.30;15.70;;;17.70;99.90;;;;;;12531801;28;20546;-45
2021/07/27 04:22:04;;;;;;;25.63;16.23;;;17.70;99.90;;;;;;12526035;28;20103;-45
2021/07/27 04:28:07;;;;;;;23.02;16.45;;;17.80;99.90;;;;;;12529661;28;20105;-45
2021/07/27 04:34:09;;;;;;;25.63;17.17;;;17.80;99.90;;;;;;12528671;28;20102;-45
2021/07/27 04:40:11;;;;;;;24.05;17.17;;;17.90;99.90;;;;;;12526770;28;20122;-45
2021/07/27 04:46:13;;;;;;;24.20;17.70;;;17.90;99.90;;;;;;12524510;28;20093;-47
2021/07/27 04:52:20;;;;;;;26.40;18.35;;;17.90;99.90;;;;;;12522543;28;20132;-47
2021/07/27 04:58:22;;;;;;;27.95;19.73;;;17.90;99.90;;;;;;12517536;28;20143;-47
2021/07/27 05:04:27;;;;;;;30.17;20.65;;;18.00;99.90;;;;;;12531360;28;22092;-47
2021/07/27 05:10:29;;;;;;;25.55;17.73;;;17.90;99.90;;;;;;12528872;28;20053;-47
2021/07/27 05:16:32;;;;;;;29.17;19.60;;;17.90;99.90;;;;;;12525616;28;20044;-47
2021/07/27 05:22:34;;;;;;;28.63;20.02;;;18.00;99.90;;;;;;12526833;28;20048;-47
2021/07/27 05:28:36;;;;;;;31.73;21.13;;;18.00;99.90;;;;;;12529922;28;20076;-47
2021/07/27 05:34:38;;;;;;;39.78;19.17;;;18.00;99.90;;;;;;12527409;28;20337;-47
2021/07/27 05:40:40;;;;;;;25.17;18.67;;;18.10;99.90;;;;;;12541383;28;20055;-47
2021/07/27 05:46:42;;;;;;;31.17;20.52;;;18.10;99.90;;;;;;12538425;28;20109;-47
2021/07/27 05:52:44;;;;;;;29.77;20.70;;;18.00;99.90;;;;;;12533273;28;20461;-47
2021/07/27 05:58:46;;;;;;;27.70;20.08;;;18.10;99.90;;;;;;12536096;28;20056;-47
2021/07/27 06:04:47;;;;;;;29.92;21.40;;;18.20;99.90;;;;;;12526811;28;20045;-45
2021/07/27 06:10:49;;;;;;;29.45;22.20;;;18.30;99.90;;;;;;12531563;28;20045;-47
2021/07/27 06:16:51;;;;;;;30.15;22.83;;;18.20;99.90;;;;;;12537043;28;20082;-47
2021/07/27 06:22:53;;;;;;;29.52;22.58;;;18.20;99.90;;;;;;12534660;28;20114;-47
2021/07/27 06:28:55;;;;;;;31.00;24.35;;;18.20;99.90;;;;;;12541557;28;20057;-47
2021/07/27 06:34:56;;;;;;;29.02;23.52;;;18.30;99.90;;;;;;12534173;28;20141;-47
2021/07/27 06:40:59;;;;;;;32.42;26.08;;;18.40;99.90;;;;;;12534995;28;20044;-47
2021/07/27 06:47:01;;;;;;;38.72;27.45;;;18.50;99.90;;;;;;12532930;28;20049;-47
2021/07/27 06:53:03;;;;;;;34.83;25.83;;;18.50;99.90;;;;;;12537256;28;20497;-47
2021/07/27 06:59:05;;;;;;;38.35;26.73;;;18.50;99.90;;;;;;12532543;28;20083;-46
2021/07/27 07:05:07;;;;;;;36.15;24.83;;;18.70;99.90;;;;;;12533057;28;20484;-46
2021/07/27 07:11:10;;;;;;;34.25;24.52;;;19.20;99.90;;;;;;12523442;28;20540;-46
2021/07/27 07:17:13;;;;;;;33.22;21.92;;;19.30;99.90;;;;;;12534215;28;20052;-46
2021/07/27 07:23:15;;;;;;;30.15;22.35;;;19.10;99.90;;;;;;12527384;28;20056;-46
2021/07/27 07:29:17;;;;;;;31.05;21.00;;;19.00;99.90;;;;;;12524852;28;20398;-46
2021/07/27 07:35:23;;;;;;;30.35;19.88;;;19.30;99.90;;;;;;12526996;28;20374;-46
2021/07/27 07:41:26;;;;;;;28.90;21.15;;;19.40;99.90;;;;;;12525047;28;20177;-46
2021/07/27 07:47:27;;;;;;;24.53;19.07;;;19.60;99.90;;;;;;12524828;28;20057;-46
2021/07/27 07:53:33;;;;;;;27.17;21.23;;;19.70;99.90;;;;;;12524116;28;20836;-46
2021/07/27 07:59:35;;;;;;;36.28;22.00;;;19.80;99.90;;;;;;12522159;28;20488;-46
2021/07/27 08:05:37;;;;;;;27.45;21.67;;;19.90;99.90;;;;;;12523804;28;20045;-46
2021/07/27 08:11:40;;;;;;;34.22;25.50;;;20.00;99.90;;;;;;12526640;28;20080;-46
2021/07/27 08:17:42;;;;;;;36.58;26.40;;;19.80;99.90;;;;;;12527731;28;20099;-46
2021/07/27 08:23:45;;;;;;;40.10;27.20;;;19.90;99.90;;;;;;12522525;28;20041;-46
2021/07/27 08:29:47;;;;;;;35.53;26.60;;;20.00;99.90;;;;;;12526821;28;20057;-46
2021/07/27 08:35:49;;;;;;;35.70;25.60;;;20.30;99.90;;;;;;12522312;28;20390;-46
2021/07/27 08:41:54;;;;;;;32.75;25.33;;;20.60;99.90;;;;;;12520169;28;20037;-46
2021/07/27 08:47:57;;;;;;;32.60;24.67;;;20.60;99.90;;;;;;12514808;28;20094;-46
2021/07/27 08:53:58;;;;;;;27.98;22.42;;;20.90;99.90;;;;;;12505876;28;20696;-46
2021/07/27 09:00:01;;;;;;;35.03;23.58;;;20.80;99.90;;;;;;12514385;28;20219;-46
2021/07/27 09:06:06;;;;;;;28.15;20.58;;;20.80;99.90;;;;;;12519267;28;20048;-46
2021/07/27 09:12:09;;;;;;;27.17;20.45;;;21.20;99.90;;;;;;12524514;28;20048;-46
2021/07/27 09:18:15;;;;;;;30.98;22.52;;;21.40;99.90;;;;;;12529253;28;20064;-46
2021/07/27 09:24:20;;;;;;;23.08;17.88;;;21.10;99.90;;;;;;12532151;28;20045;-46
2021/07/27 09:30:22;;;;;;;25.48;19.15;;;21.10;99.90;;;;;;12524540;28;20118;-46
2021/07/27 09:36:26;;;;;;;24.92;17.92;;;21.30;99.90;;;;;;12526634;28;20152;-46
2021/07/27 09:42:31;;;;;;;18.95;13.77;;;21.50;99.90;;;;;;12531355;28;20049;-46
2021/07/27 09:48:35;;;;;;;19.30;13.23;;;21.50;99.90;;;;;;12525723;28;20113;-46
2021/07/27 09:54:39;;;;;;;14.55;11.75;;;21.80;99.90;;;;;;12528375;28;20186;-46
2021/07/27 10:00:49;;;;;;;14.23;10.68;;;22.20;99.90;;;;;;12526771;28;20090;-46
2021/07/27 10:06:52;;;;;;;18.25;12.60;;;22.10;99.90;;;;;;12524122;28;20033;-46
2021/07/27 10:13:04;;;;;;;11.82;10.38;;;22.20;99.90;;;;;;12520022;28;20045;-46
2021/07/27 10:19:21;;;;;;;15.90;11.88;;;22.30;99.90;;;;;;12534115;28;20045;-46
2021/07/27 10:25:25;;;;;;;12.27;9.48;;;22.30;99.90;;;;;;12526440;28;20106;-46
2021/07/27 10:31:34;;;;;;;13.95;10.32;;;22.50;99.90;;;;;;12525986;28;20079;-46
2021/07/27 10:37:37;;;;;;;12.90;10.23;;;23.00;99.90;;;;;;12525902;28;20513;-46
2021/07/27 10:43:39;;;;;;;12.60;10.20;;;23.10;99.90;;;;;;12527919;28;20049;-46
2021/07/27 10:49:40;;;;;;;12.02;10.23;;;22.60;99.90;;;;;;12533612;28;20076;-46
2021/07/27 10:55:49;;;;;;;13.90;9.10;;;22.90;99.90;;;;;;12521659;28;20045;-46
2021/07/27 11:01:53;;;;;;;13.30;10.07;;;23.30;99.90;;;;;;12520065;28;20045;-46
2021/07/27 11:07:55;;;;;;;12.07;10.15;;;23.00;99.90;;;;;;12522510;28;20080;-46
2021/07/27 11:13:57;;;;;;;15.07;10.60;;;23.00;99.90;;;;;;12526950;28;20063;-46
2021/07/27 11:19:59;;;;;;;20.33;12.13;;;22.80;99.90;;;;;;12526174;28;20084;-46
2021/07/27 11:26:02;;;;;;;20.30;11.48;;;22.40;99.90;;;;;;12528170;28;20381;-46
2021/07/27 11:32:12;;;;;;;16.67;12.47;;;22.60;99.90;;;;;;12522933;28;20049;-46
2021/07/27 11:38:32;;;;;;;15.75;11.15;;;22.50;99.90;;;;;;12526221;28;20159;-46
2021/07/27 11:44:34;;;;;;;12.43;9.73;;;22.60;99.90;;;;;;12527358;28;20056;-46
2021/07/27 11:50:40;;;;;;;16.30;11.43;;;22.50;99.90;;;;;;12513020;28;20047;-46
2021/07/27 11:56:46;;;;;;;13.35;11.43;;;22.40;99.90;;;;;;12524728;28;20095;-46
2021/07/27 12:02:48;;;;;;;15.27;10.77;;;22.80;99.90;;;;;;12524665;28;20041;-46
2021/07/27 12:08:52;;;;;;;14.57;12.43;;;22.60;99.90;;;;;;12529050;28;20041;-46
2021/07/27 12:14:53;;;;;;;14.50;10.18;;;23.30;99.90;;;;;;12523546;28;20045;-46
2021/07/27 12:20:55;;;;;;;8.65;7.70;;;24.30;99.90;;;;;;12524793;28;24202;-46
2021/07/27 12:26:59;;;;;;;12.90;8.68;;;25.00;99.90;;;;;;12530960;28;20053;-46
2021/07/27 12:33:01;;;;;;;10.15;6.45;;;25.70;99.90;;;;;;12529393;28;20132;-46
2021/07/27 12:39:03;;;;;;;10.23;6.57;;;25.30;99.90;;;;;;12523511;28;20122;-46
2021/07/27 12:45:06;;;;;;;10.77;6.47;;;25.10;99.90;;;;;;12526396;28;20057;-46
2021/07/27 12:51:14;;;;;;;9.43;6.40;;;25.50;99.90;;;;;;12529382;28;20048;-46
2021/07/27 12:57:15;;;;;;;8.18;5.40;;;25.10;99.90;;;;;;12525318;28;20752;-46
2021/07/27 13:03:18;;;;;;;12.47;6.47;;;24.80;99.90;;;;;;12524368;28;20049;-46
2021/07/27 13:09:20;;;;;;;7.90;5.80;;;25.30;99.90;;;;;;12530568;28;20052;-46
2021/07/27 13:15:22;;;;;;;10.63;5.95;;;25.70;99.90;;;;;;12524392;28;20322;-46
2021/07/27 13:21:24;;;;;;;7.53;6.00;;;25.90;99.90;;;;;;12522588;28;20045;-46
2021/07/27 13:27:26;;;;;;;10.60;6.30;;;26.20;99.90;;;;;;12527591;28;20140;-46
2021/07/27 13:33:29;;;;;;;10.82;6.75;;;25.30;99.90;;;;;;12517625;28;20056;-46
2021/07/27 13:39:31;;;;;;;8.63;6.15;;;25.70;99.90;;;;;;12518938;28;20049;-46
2021/07/27 13:45:33;;;;;;;7.72;5.90;;;26.50;99.90;;;;;;12516407;28;20044;-46
2021/07/27 13:51:35;;;;;;;11.45;5.88;;;27.10;99.90;;;;;;12516199;28;20049;-46
2021/07/27 13:57:37;;;;;;;7.85;5.47;;;27.00;99.90;;;;;;12513611;28;20060;-46
2021/07/27 14:03:40;;;;;;;9.37;5.77;;;26.40;99.90;;;;;;12522253;28;20715;-46
2021/07/27 14:09:42;;;;;;;11.20;5.68;;;26.40;99.90;;;;;;12528084;28;20139;-46
2021/07/27 14:15:44;;;;;;;10.00;5.90;;;26.60;99.90;;;;;;12519609;28;20063;-46
2021/07/27 14:21:46;;;;;;;11.10;5.60;;;26.10;99.90;;;;;;12526393;28;20920;-46
2021/07/27 14:27:48;;;;;;;7.72;5.85;;;26.20;99.90;;;;;;12513573;28;21036;-46
2021/07/27 14:33:50;;;;;;;7.97;6.15;;;25.50;99.90;;;;;;12522143;28;20058;-46
2021/07/27 14:39:52;;;;;;;8.82;6.28;;;24.90;99.90;;;;;;12523298;28;20091;-46
2021/07/27 14:45:55;;;;;;;8.38;5.90;;;24.50;99.90;;;;;;12524580;28;20762;-46
2021/07/27 14:51:57;;;;;;;9.27;5.43;;;24.50;99.90;;;;;;12522440;28;20074;-46
2021/07/27 14:58:00;;;;;;;9.60;5.68;;;24.50;99.90;;;;;;12529165;28;20049;-46
2021/07/27 15:04:06;;;;;;;10.55;6.25;;;24.40;99.90;;;;;;12533628;28;20045;-46
2021/07/27 15:10:11;;;;;;;13.55;6.38;;;24.10;99.90;;;;;;12524562;28;20049;-45
2021/07/27 15:16:13;;;;;;;9.65;6.00;;;24.10;99.90;;;;;;12537588;28;20052;-46
2021/07/27 15:22:17;;;;;;;8.07;6.30;;;24.20;99.90;;;;;;12528464;28;20091;-46
2021/07/27 15:28:19;;;;;;;10.35;6.07;;;24.30;99.90;;;;;;12524550;28;20094;-46
2021/07/27 15:34:21;;;;;;;9.05;5.60;;;23.50;99.90;;;;;;12527681;28;20121;-46
2021/07/27 15:40:23;;;;;;;5.90;4.65;;;22.60;99.90;;;;;;12533776;28;20044;-46
2021/07/27 15:46:24;;;;;;;5.00;3.75;;;21.70;99.90;;;;;;12522750;28;20451;-46
2021/07/27 15:52:26;;;;;;;6.20;3.42;;;21.00;99.90;;;;;;12530948;28;20049;-46
2021/07/27 15:58:29;;;;;;;5.00;3.70;;;20.40;99.90;;;;;;12525094;28;20465;-46
2021/07/27 16:04:30;;;;;;;5.80;4.22;;;20.10;99.90;;;;;;12522128;28;20045;-46
2021/07/27 16:10:32;;;;;;;5.68;4.15;;;20.10;99.90;;;;;;12523525;28;20052;-46
2021/07/27 16:16:35;;;;;;;6.37;4.43;;;20.10;99.90;;;;;;12523027;28;20049;-46
2021/07/27 16:22:37;;;;;;;4.80;3.60;;;20.20;99.90;;;;;;12520157;28;20053;-46
2021/07/27 16:28:39;;;;;;;6.72;3.88;;;20.30;99.90;;;;;;12517838;28;20455;-46
2021/07/27 16:34:41;;;;;;;5.40;3.72;;;20.30;99.90;;;;;;12521910;28;20048;-46
2021/07/27 16:40:43;;;;;;;7.28;3.80;;;20.20;99.90;;;;;;12524291;28;20048;-46
2021/07/27 16:46:45;;;;;;;6.00;4.30;;;20.20;99.90;;;;;;12524805;28;20052;-46
2021/07/27 16:52:47;;;;;;;7.35;4.30;;;20.00;99.90;;;;;;12518080;28;20056;-46
2021/07/27 16:58:48;;;;;;;6.82;4.85;;;19.60;99.90;;;;;;12519564;28;20111;-46
2021/07/27 17:04:53;;;;;;;8.57;5.20;;;19.20;99.90;;;;;;12519917;28;20090;-46
2021/07/27 17:10:55;;;;;;;8.25;5.45;;;19.00;99.90;;;;;;12515233;28;20094;-46
2021/07/27 17:16:57;;;;;;;8.45;5.60;;;18.90;99.90;;;;;;12520336;28;21166;-46
2021/07/27 17:22:59;;;;;;;6.75;5.07;;;18.80;99.90;;;;;;12505951;28;20171;-46
2021/07/27 17:29:01;;;;;;;8.02;5.05;;;18.90;99.90;;;;;;12517096;28;20045;-46
2021/07/27 17:35:07;;;;;;;7.55;4.80;;;18.80;99.90;;;;;;12517789;28;20489;-46
2021/07/27 17:41:09;;;;;;;7.60;4.55;;;18.80;99.90;;;;;;12529625;28;20086;-46
2021/07/27 17:47:11;;;;;;;11.02;4.82;;;18.70;99.90;;;;;;12530742;28;20047;-46
2021/07/27 17:53:13;;;;;;;6.38;4.47;;;18.70;99.90;;;;;;12530904;28;20132;-46
2021/07/27 17:59:15;;;;;;;7.45;5.05;;;18.80;99.90;;;;;;12528223;28;20079;-46
2021/07/27 18:05:18;;;;;;;8.52;4.32;;;18.80;99.90;;;;;;12526636;28;20055;-46
2021/07/27 18:11:20;;;;;;;9.40;4.63;;;18.60;99.90;;;;;;12533523;28;20076;-46
2021/07/27 18:17:22;;;;;;;8.50;4.68;;;18.60;99.90;;;;;;12531622;28;20092;-46
2021/07/27 18:23:25;;;;;;;7.35;5.10;;;18.60;99.90;;;;;;12531593;28;20544;-46
2021/07/27 18:29:27;;;;;;;7.05;4.95;;;18.50;99.90;;;;;;12530590;28;20060;-46
2021/07/27 18:35:28;;;;;;;6.85;4.80;;;18.50;99.90;;;;;;12525655;28;20056;-46
2021/07/27 18:41:32;;;;;;;8.25;5.78;;;18.50;99.90;;;;;;12526750;28;20053;-46
2021/07/27 18:47:33;;;;;;;9.47;5.40;;;18.50;99.90;;;;;;12528758;28;20057;-46
2021/07/27 18:53:38;;;;;;;8.32;5.93;;;18.50;99.90;;;;;;12531173;28;20057;-46
2021/07/27 19:06:47;;;;;;;7.35;5.90;;;18.50;99.90;;;;;;12562134;22;19971;-85
2021/07/27 19:12:48;;;;;;;8.57;5.95;;;18.50;99.90;;;;;;12553244;28;20060;-84
2021/07/27 19:18:50;;;;;;;10.20;6.65;;;18.50;99.90;;;;;;12544269;28;20048;-84
2021/07/27 19:24:52;;;;;;;11.27;6.57;;;18.60;99.90;;;;;;12543953;28;20130;-84
2021/07/27 19:30:54;;;;;;;8.00;6.30;;;18.50;99.90;;;;;;12543719;28;20183;-85
2021/07/27 19:37:00;;;;;;;8.77;6.55;;;18.50;99.90;;;;;;12532755;28;20048;-84
2021/07/27 19:55:09;;;;;;;6.78;5.30;;;18.30;99.90;;;;;;12539002;28;20455;-84
2021/07/27 20:01:11;;;;;;;7.85;5.55;;;18.30;99.90;;;;;;12541453;28;20048;-84
2021/07/27 20:07:13;;;;;;;7.78;5.25;;;18.20;99.90;;;;;;12537164;28;20109;-85
2021/07/27 20:13:15;;;;;;;8.02;5.38;;;18.20;99.90;;;;;;12531259;28;20049;-85
2021/07/27 20:19:17;;;;;;;8.48;5.30;;;18.20;99.90;;;;;;12537846;28;20112;-85
2021/07/27 20:25:18;;;;;;;10.85;5.80;;;18.20;99.90;;;;;;12541311;28;20056;-85
2021/07/27 20:31:20;;;;;;;7.43;5.93;;;18.00;99.90;;;;;;12542207;28;20045;-84
2021/07/27 20:37:22;;;;;;;9.38;5.82;;;18.10;99.90;;;;;;12523968;28;20041;-84
2021/07/27 20:43:24;;;;;;;7.97;5.57;;;18.10;99.90;;;;;;12539810;28;20089;-85
2021/07/27 20:49:26;;;;;;;9.25;5.57;;;17.90;99.90;;;;;;12531670;28;20533;-84
2021/07/27 20:55:48;;;;;;;7.20;5.57;;;17.80;99.90;;;;;;12533073;28;20325;-84
2021/07/27 21:01:49;;;;;;;12.27;5.93;;;18.00;99.90;;;;;;12556606;28;20109;-84
2021/07/27 21:07:51;;;;;;;7.63;5.60;;;17.80;99.90;;;;;;12559434;28;20140;-85
2021/07/27 21:13:53;;;;;;;9.60;5.50;;;17.90;99.90;;;;;;12539397;28;20043;-84
2021/07/27 21:19:55;;;;;;;8.68;5.70;;;18.30;99.90;;;;;;12546820;28;20486;-84
2021/07/27 21:26:02;;;;;;;8.00;5.57;;;18.00;99.90;;;;;;12551846;28;20600;-85
2021/07/27 21:32:05;;;;;;;7.20;5.13;;;17.70;99.90;;;;;;12529329;28;20041;-84
2021/07/27 21:38:07;;;;;;;6.97;4.97;;;17.90;99.90;;;;;;12546172;28;20054;-84
2021/07/27 21:44:08;;;;;;;6.68;4.70;;;17.70;99.90;;;;;;12553255;28;20041;-83
2021/07/27 21:50:11;;;;;;;8.65;4.68;;;17.70;99.90;;;;;;12545203;28;20057;-86
2021/07/27 21:56:13;;;;;;;5.75;3.80;;;17.60;99.90;;;;;;12538757;28;20057;-85
2021/07/27 22:02:15;;;;;;;7.00;4.18;;;17.60;99.90;;;;;;12546808;28;20041;-85
2021/07/27 22:08:17;;;;;;;6.10;3.88;;;17.60;99.90;;;;;;12559529;28;20086;-85
2021/07/27 22:14:19;;;;;;;10.32;4.00;;;17.60;99.90;;;;;;12555202;28;20462;-85
2021/07/27 22:20:21;;;;;;;5.57;3.85;;;17.60;99.90;;;;;;12544852;28;20127;-85
2021/07/27 22:26:22;;;;;;;6.07;4.20;;;17.60;99.90;;;;;;12546581;28;20179;-86
2021/07/27 22:32:25;;;;;;;6.65;3.80;;;17.40;99.90;;;;;;12545823;28;20041;-85
2021/07/27 22:38:27;;;;;;;7.22;4.57;;;17.60;99.90;;;;;;12576045;28;20067;-85
2021/07/27 22:44:29;;;;;;;7.22;4.28;;;17.50;99.90;;;;;;12594797;28;20045;-84
2021/07/27 22:50:31;;;;;;;8.85;4.85;;;17.50;99.90;;;;;;12577979;28;20446;-84
2021/07/27 22:56:33;;;;;;;6.93;4.47;;;17.50;99.90;;;;;;12583532;28;20045;-85
2021/07/27 23:02:35;;;;;;;7.00;4.85;;;17.50;99.90;;;;;;12566222;28;20061;-85
2021/07/27 23:08:38;;;;;;;7.80;4.60;;;17.50;99.90;;;;;;12580061;28;20148;-85
2021/07/27 23:14:40;;;;;;;8.38;4.75;;;17.60;99.90;;;;;;12585835;28;20041;-84
2021/07/27 23:20:42;;;;;;;7.43;4.82;;;17.60;99.90;;;;;;12578873;28;20048;-85
2021/07/27 23:26:47;;;;;;;5.93;4.20;;;17.50;99.90;;;;;;12581848;28;20098;-85
2021/07/27 23:32:52;;;;;;;6.10;4.40;;;17.80;99.90;;;;;;12578354;28;20048;-84
2021/07/27 23:38:54;;;;;;;5.45;3.72;;;17.70;99.90;;;;;;12573638;28;20056;-86
2021/07/27 23:44:56;;;;;;;4.93;3.88;;;17.40;99.90;;;;;;12592064;28;20037;-84
2021/07/27 23:51:08;;;;;;;6.95;4.10;;;17.40;99.90;;;;;;12571286;28;20159;-85
2021/07/27 23:57:11;;;;;;;5.72;4.13;;;17.40;99.90;;;;;;12579107;28;20080;-83
